PrentiSS Brown — WDE6848 — position and weather

sailwx.info

Track history (hours):
 
Tides and Currents Weather Stations Pressure Air Temp Water Temp Dewpoint Dewpoint Depression Visibility Wind Speed Wind Dir Waves Ship Positions

PrentiSS Brown

Owner: Port City Marine Services Inc, Muskegon, MI. More information available from US FCC via Universal Licensing System and Coast Guard Vessel Documentation Center.

Last reported at 2014-Dec-21 20:34 UTC. Time now 2014-Dec-21 21:33 UTC.
Position N 45°19' W 085°18'.

; draft 5.3 m.

Type: Other ship. MMSI: 366922280.

Date/timePositionNaut miles runAvg speedWind from/ knotsBaromVisibWave heightAir tempDewpointWater temp
2014-Dec-21 20:34N 45°19' W 085°18'0 0.0
2014-Dec-21 19:33N 45°19' W 085°18'0 0.0
2014-Dec-21 18:33N 45°19' W 085°18'0 0.0
2014-Dec-21 17:33N 45°19' W 085°18'0 0.3
2014-Dec-21 16:34N 45°19' W 085°17'4 4.4
2014-Dec-21 15:34N 45°19' W 085°24'10 9.8
2014-Dec-21 14:34N 45°14' W 085°36'10 9.8
2014-Dec-21 13:33N 45°08' W 085°46'1 0.0
2014-Dec-19 22:34N 45°09' W 085°45'9 9.2
2014-Dec-19 21:33N 45°15' W 085°35'9 9.3
2014-Dec-19 20:33N 45°19' W 085°23'4 3.8
2014-Dec-19 19:34N 45°19' W 085°18'0 0.1
2014-Dec-19 18:33N 45°19' W 085°18'0 0.0
2014-Dec-19 17:33N 45°19' W 085°18'0 0.0
2014-Dec-19 16:34N 45°19' W 085°18'0 0.0
2014-Dec-19 15:33N 45°19' W 085°18'0 0.0
2014-Dec-19 14:34N 45°19' W 085°18'0 0.0
2014-Dec-19 13:34N 45°19' W 085°18'0 0.3
2014-Dec-19 12:33N 45°19' W 085°17'4 4.2
2014-Dec-19 11:34N 45°22' W 085°21'9 9.0
2014-Dec-19 10:33N 45°28' W 085°32'9 9.2
2014-Dec-19 09:34N 45°31' W 085°44'10 9.7
2014-Dec-19 08:34N 45°31' W 085°57'  
2014-Dec-13 22:30N 45°08' W 085°46'8 8.6
2014-Dec-13 21:34N 45°13' W 085°38'9 8.5
2014-Dec-13 20:33N 45°17' W 085°27'7 7.4
2014-Dec-13 19:34N 45°19' W 085°17'1 0.6
2014-Dec-13 18:34N 45°19' W 085°18'0 0.0
2014-Dec-13 17:33N 45°19' W 085°18'0 0.0
2014-Dec-13 16:33N 45°19' W 085°18'0 0.0
2014-Dec-13 15:34N 45°19' W 085°18'0 0.0
2014-Dec-13 14:33N 45°19' W 085°18'0 0.0
2014-Dec-13 13:34N 45°19' W 085°18'0 0.0
2014-Dec-13 12:34N 45°19' W 085°18'0 0.0
2014-Dec-13 11:34N 45°19' W 085°18'0 0.0
2014-Dec-13 10:34N 45°19' W 085°18'0 0.0
2014-Dec-13 09:33N 45°19' W 085°18'0 0.0
2014-Dec-13 08:34N 45°19' W 085°18'0 0.0
2014-Dec-13 07:34N 45°19' W 085°18'0 0.0
2014-Dec-13 06:33N 45°19' W 085°18'0 0.0
2014-Dec-13 05:34N 45°19' W 085°18'0 0.0
2014-Dec-13 04:33N 45°19' W 085°18'0 0.1
2014-Dec-13 03:34N 45°19' W 085°18'1 0.7
2014-Dec-13 02:33N 45°19' W 085°17'0 0.0
2014-Dec-13 01:34N 45°19' W 085°17'0 0.0
2014-Dec-13 00:34N 45°19' W 085°17'0 0.0
2014-Dec-12 23:34N 45°19' W 085°17'0 0.0
2014-Dec-12 22:34N 45°19' W 085°17'0 0.0
2014-Dec-12 21:34N 45°19' W 085°17'0 0.0
2014-Dec-12 20:33N 45°19' W 085°17'0 0.0
2014-Dec-12 19:33N 45°19' W 085°17'0 0.0
2014-Dec-12 18:34N 45°19' W 085°17'0 0.0
2014-Dec-12 17:33N 45°19' W 085°17'0 0.0
2014-Dec-12 16:34N 45°19' W 085°17'0 0.0
2014-Dec-12 15:33N 45°19' W 085°17'2 1.7
2014-Dec-12 14:33N 45°21' W 085°18'6 5.6
2014-Dec-12 13:34N 45°25' W 085°24'5 4.9
2014-Dec-12 12:34N 45°27' W 085°30'7 6.6
2014-Dec-12 11:34N 45°31' W 085°37'7 6.6
2014-Dec-12 10:34N 45°31' W 085°47'7 6.7
2014-Dec-12 09:34N 45°31' W 085°56'28 6.4
2014-Dec-12 05:15N 45°27' W 086°36'4 6.4
2014-Dec-12 04:33N 45°24' W 086°39'  
Track history (hours):
 
Tides and Currents Weather Stations Pressure Air Temp Water Temp Dewpoint Dewpoint Depression Visibility Wind Speed Wind Dir Waves Ship Positions

PrentiSS Brown

Owner: Port City Marine Services Inc, Muskegon, MI. More information available from US FCC via Universal Licensing System and Coast Guard Vessel Documentation Center.

Last reported at 2014-Dec-21 20:34 UTC. Time now 2014-Dec-21 21:33 UTC.
Position N 45°19' W 085°18'.

; draft 5.3 m.

Type: Other ship. MMSI: 366922280.

Date/timePositionNaut miles runAvg speedWind from/ knotsBaromVisibWave heightAir tempDewpointWater temp
2014-Dec-21 20:34N 45°19' W 085°18'0 0.0
2014-Dec-21 19:33N 45°19' W 085°18'0 0.0
2014-Dec-21 18:33N 45°19' W 085°18'0 0.0
2014-Dec-21 17:33N 45°19' W 085°18'0 0.3
2014-Dec-21 16:34N 45°19' W 085°17'4 4.4
2014-Dec-21 15:34N 45°19' W 085°24'10 9.8
2014-Dec-21 14:34N 45°14' W 085°36'10 9.8
2014-Dec-21 13:33N 45°08' W 085°46'1 0.0
2014-Dec-19 22:34N 45°09' W 085°45'9 9.2
2014-Dec-19 21:33N 45°15' W 085°35'9 9.3
2014-Dec-19 20:33N 45°19' W 085°23'4 3.8
2014-Dec-19 19:34N 45°19' W 085°18'0 0.1
2014-Dec-19 18:33N 45°19' W 085°18'0 0.0
2014-Dec-19 17:33N 45°19' W 085°18'0 0.0
2014-Dec-19 16:34N 45°19' W 085°18'0 0.0
2014-Dec-19 15:33N 45°19' W 085°18'0 0.0
2014-Dec-19 14:34N 45°19' W 085°18'0 0.0
2014-Dec-19 13:34N 45°19' W 085°18'0 0.3
2014-Dec-19 12:33N 45°19' W 085°17'4 4.2
2014-Dec-19 11:34N 45°22' W 085°21'9 9.0
2014-Dec-19 10:33N 45°28' W 085°32'9 9.2
2014-Dec-19 09:34N 45°31' W 085°44'10 9.7
2014-Dec-19 08:34N 45°31' W 085°57'  
2014-Dec-13 22:30N 45°08' W 085°46'8 8.6
2014-Dec-13 21:34N 45°13' W 085°38'9 8.5
2014-Dec-13 20:33N 45°17' W 085°27'7 7.4
2014-Dec-13 19:34N 45°19' W 085°17'1 0.6
2014-Dec-13 18:34N 45°19' W 085°18'0 0.0
2014-Dec-13 17:33N 45°19' W 085°18'0 0.0
2014-Dec-13 16:33N 45°19' W 085°18'0 0.0
2014-Dec-13 15:34N 45°19' W 085°18'0 0.0
2014-Dec-13 14:33N 45°19' W 085°18'0 0.0
2014-Dec-13 13:34N 45°19' W 085°18'0 0.0
2014-Dec-13 12:34N 45°19' W 085°18'0 0.0
2014-Dec-13 11:34N 45°19' W 085°18'0 0.0
2014-Dec-13 10:34N 45°19' W 085°18'0 0.0
2014-Dec-13 09:33N 45°19' W 085°18'0 0.0
2014-Dec-13 08:34N 45°19' W 085°18'0 0.0
2014-Dec-13 07:34N 45°19' W 085°18'0 0.0
2014-Dec-13 06:33N 45°19' W 085°18'0 0.0
2014-Dec-13 05:34N 45°19' W 085°18'0 0.0
2014-Dec-13 04:33N 45°19' W 085°18'0 0.1
2014-Dec-13 03:34N 45°19' W 085°18'1 0.7
2014-Dec-13 02:33N 45°19' W 085°17'0 0.0
2014-Dec-13 01:34N 45°19' W 085°17'0 0.0
2014-Dec-13 00:34N 45°19' W 085°17'0 0.0
2014-Dec-12 23:34N 45°19' W 085°17'0 0.0
2014-Dec-12 22:34N 45°19' W 085°17'0 0.0
2014-Dec-12 21:34N 45°19' W 085°17'0 0.0
2014-Dec-12 20:33N 45°19' W 085°17'0 0.0
2014-Dec-12 19:33N 45°19' W 085°17'0 0.0
2014-Dec-12 18:34N 45°19' W 085°17'0 0.0
2014-Dec-12 17:33N 45°19' W 085°17'0 0.0
2014-Dec-12 16:34N 45°19' W 085°17'0 0.0
2014-Dec-12 15:33N 45°19' W 085°17'2 1.7
2014-Dec-12 14:33N 45°21' W 085°18'6 5.6
2014-Dec-12 13:34N 45°25' W 085°24'5 4.9
2014-Dec-12 12:34N 45°27' W 085°30'7 6.6
2014-Dec-12 11:34N 45°31' W 085°37'7 6.6
2014-Dec-12 10:34N 45°31' W 085°47'7 6.7
2014-Dec-12 09:34N 45°31' W 085°56'28 6.4
2014-Dec-12 05:15N 45°27' W 086°36'4 6.4
2014-Dec-12 04:33N 45°24' W 086°39'  

Dump ship's entire track history